Calcoene, Brazil
Current Conditions -  °F | °C
As of 10:00 AM on Monday 20 Oct 2014 (Local Time) from SBMQ Reporting Station
Scattered Clouds Scattered Clouds  
Wind Chill: 93°   Ceiling: Unl
Heat Index: 101°   Visibility: 6mi
Dew Point: 72°   Wind: 10mph
Humidity: 49%   Direction: 60°ENE
Pressure: 29.88"   Gusts: NA
Location:  2.5°N, 50.95°W
Report Text: SBMQ 201300Z 06009KT 9999 SCT025 34/22 Q1012
Loading
Personal Weather Stations






























Interactive Weather Map
Tropical Storm Tracking
New forecast layout! Learn more

10-Day Weather Forecast

Advertisements
Track Severe Weather on mobile